Bent, New Mexico
Current Conditions -  °F | °C
As of 3:35 AM on Thursday 18 Dec 2014 (Local Time) from KALM Reporting Station
Broken Clouds Broken Clouds  
Wind Chill:   Ceiling: 5000
Heat Index:   Visibility: 10mi
Dew Point:   Wind: 6mph
Humidity: 66%   Direction: 60°ENE
Pressure: 30.12"   Gusts: NA
Location:  33.16°N, 105.86°W
Report Text: KALM 181035Z AUTO 06005KT 10SM BKN050 08/02 A3012 RMK AO2
Loading
Personal Weather Stations






























Interactive Weather Map New forecast layout! Learn more

10-Day Weather Forecast

Advertisements
Track Severe Weather on mobile